This is the latest recevied weather packets stored in our database for station/object DL4MGC-10. If no packets are shown the sender has not sent any weather packets the latest 10 day(s).
| Time | Temp. | Humidity | Pressure | Rain* | Wind** | Luminosity | Snow |
|---|---|---|---|---|---|---|---|
| 1777281100 | 19.44° C | 54% | 1021.7 hPa | - | - | - | - |
| 1777280200 | 18.33° C | 52% | 1021.8 hPa | - | - | - | - |
| 1777279300 | 17.78° C | 58% | 1021.9 hPa | - | - | - | - |
| 1777278400 | 16.67° C | 56% | 1021.8 hPa | - | - | - | - |
| 1777277500 | 16.11° C | 57% | 1021.9 hPa | - | - | - | - |
| 1777276600 | 15.56° C | 58% | 1021.8 hPa | - | - | - | - |
| 1777275699 | 15.56° C | 59% | 1021.7 hPa | - | - | - | - |
| 1777274799 | 14.44° C | 60% | 1021.7 hPa | - | - | - | - |
| 1777273899 | 12.78° C | 62% | 1021.8 hPa | - | - | - | - |
| 1777272999 | 11.67° C | 62% | 1021.9 hPa | - | - | - | - |
| 1777272099 | 10.56° C | 62% | 1021.9 hPa | - | - | - | - |
| 1777271199 | 10° C | 65% | 1021.8 hPa | - | - | - | - |
| 1777270299 | 8.89° C | 72% | 1021.9 hPa | - | - | - | - |
| 1777269399 | 7.22° C | 75% | 1021.9 hPa | - | - | - | - |
| 1777268499 | 7.22° C | 74% | 1021.9 hPa | - | - | - | - |
| 1777267599 | 6.11° C | 78% | 1021.9 hPa | - | - | - | - |
| 1777266699 | 5.56° C | 79% | 1021.6 hPa | - | - | - | - |
| 1777265799 | 5.56° C | 80% | 1021.6 hPa | - | - | - | - |
| 1777264899 | 5° C | 81% | 1021.7 hPa | - | - | - | - |
| 1777263998 | 4.44° C | 83% | 1021.5 hPa | - | - | - | - |
| 1777263098 | 3.89° C | 84% | 1021.5 hPa | - | - | - | - |
| 1777262198 | 3.89° C | 84% | 1021.4 hPa | - | - | - | - |
| 1777261298 | 5° C | 81% | 1021.2 hPa | - | - | - | - |
| 1777260398 | 3.89° C | 85% | 1021.3 hPa | - | - | - | - |
| 1777259498 | 5.56° C | 81% | 1021.2 hPa | - | - | - | - |
* Rain since midnight (hover to see other rain measurements)
** Current wind speed in m/s (hover to see current wind gust speed)